Time;durP1;ratioP1;P1;durP2;ratioP2;P2;SDS_P1;SDS_P2;PMS_P1;PMS_P2;Temp;Humidity;BMP_temperature;BMP_pressure;BME280_temperature;BME280_humidity;BME280_pressure;Samples;Min_cycle;Max_cycle;Signal;HPM_P1;HPM_P2
2023/01/23 00:00:57;;;;;;;33.38;14.40;;;;;;;2.48;100.00;103564.72;5031943;28;20438;-38
2023/01/23 00:03:23;;;;;;;29.45;14.00;;;;;;;2.50;100.00;103568.16;5031948;28;20037;-39
2023/01/23 00:06:01;;;;;;;31.55;13.75;;;;;;;2.53;100.00;103562.75;5031723;28;20095;-38
2023/01/23 00:08:26;;;;;;;;;;;;;;;2.52;100.00;103572.47;5034164;28;20112;-37
2023/01/23 00:10:52;;;;;;;28.23;13.20;;;;;;;2.50;100.00;103565.50;5033657;28;19995;-39
2023/01/23 00:13:17;;;;;;;31.42;14.27;;;;;;;2.53;100.00;103571.56;5032886;28;20477;-38
2023/01/23 00:15:43;;;;;;;44.40;16.08;;;;;;;2.48;100.00;103570.91;5031945;28;20448;-38
2023/01/23 00:18:08;;;;;;;38.45;15.82;;;;;;;2.51;100.00;103567.25;5039848;28;20530;-39
2023/01/23 00:20:36;;;;;;;29.60;14.38;;;;;;;2.62;100.00;103551.72;5051634;28;20032;-38
2023/01/23 00:23:01;;;;;;;34.00;15.25;;;;;;;2.59;100.00;103546.53;5047017;28;20037;-37
2023/01/23 00:25:27;;;;;;;31.13;14.57;;;;;;;2.60;100.00;103553.56;5042268;28;20041;-39
2023/01/23 00:27:52;;;;;;;38.65;16.15;;;;;;;2.59;100.00;103546.53;5051633;28;20048;-37
2023/01/23 00:30:18;;;;;;;39.20;15.13;;;;;;;2.55;100.00;103548.41;5048924;28;20049;-38
2023/01/23 00:32:43;;;;;;;36.40;15.05;;;;;;;2.54;100.00;103537.88;5034511;28;20417;-38
2023/01/23 00:35:08;;;;;;;31.92;15.38;;;;;;;2.61;100.00;103539.34;5042014;28;20472;-39
2023/01/23 00:37:34;;;;;;;36.17;14.38;;;;;;;2.55;100.00;103534.28;5051533;28;20487;-38
2023/01/23 00:39:59;;;;;;;28.73;14.68;;;;;;;2.53;100.00;103536.16;5051552;28;20532;-39
2023/01/23 00:42:24;;;;;;;35.05;15.77;;;;;;;2.53;100.00;103536.16;5037483;28;20053;-38
2023/01/23 00:44:50;;;;;;;30.50;14.35;;;;;;;2.53;100.00;103539.66;5038530;28;20029;-38
2023/01/23 00:47:15;;;;;;;31.73;14.88;;;;;;;2.51;100.00;103535.34;5051501;28;20037;-38
2023/01/23 00:49:40;;;;;;;32.70;14.80;;;;;;;2.47;100.00;103531.06;5049314;28;20045;-38
2023/01/23 00:52:06;;;;;;;28.65;14.32;;;;;;;2.46;100.00;103530.22;5031221;28;20041;-38
2023/01/23 00:54:31;;;;;;;29.48;13.68;;;;;;;2.42;100.00;103534.81;5036039;28;20028;-37
2023/01/23 00:56:56;;;;;;;32.78;15.15;;;;;;;2.38;100.00;103533.19;5051201;28;20128;-39
2023/01/23 00:59:22;;;;;;;37.45;14.43;;;;;;;2.36;100.00;103535.03;5041668;28;20065;-38
2023/01/23 01:01:48;;;;;;;31.65;13.82;;;;;;;2.32;100.00;103537.91;5031764;28;20047;-39
2023/01/23 01:04:13;;;;;;;30.42;14.48;;;;;;;2.35;100.00;103543.09;5033265;28;20025;-38
2023/01/23 01:06:38;;;;;;;30.75;13.55;;;;;;;2.35;100.00;103535.97;5051299;28;20120;-38
2023/01/23 01:09:04;;;;;;;29.38;14.00;;;;;;;2.36;100.00;103539.47;5051192;28;20036;-38
2023/01/23 01:11:29;;;;;;;36.40;15.35;;;;;;;2.39;100.00;103528.72;5032159;28;20037;-38
2023/01/23 01:13:55;;;;;;;42.67;14.60;;;;;;;2.35;100.00;103530.66;5031308;28;20037;-38
2023/01/23 01:16:23;;;;;;;33.08;13.80;;;;;;;2.34;100.00;103520.97;5048300;28;20033;-39
2023/01/23 01:18:48;;;;;;;26.52;13.40;;;;;;;2.33;100.00;103521.88;5050977;28;20037;-38
2023/01/23 01:21:14;;;;;;;31.90;13.50;;;;;;;2.29;100.00;103522.94;5034761;28;20041;-38
2023/01/23 01:23:40;;;;;;;32.60;13.48;;;;;;;2.29;100.00;103522.94;5030932;28;20461;-38
2023/01/23 01:26:06;;;;;;;35.65;13.90;;;;;;;2.30;100.00;103527.31;5031445;28;20120;-38
2023/01/23 01:28:33;;;;;;;33.40;14.15;;;;;;;2.29;100.00;103530.03;5031497;28;20068;-38
2023/01/23 01:31:04;;;;;;;31.05;13.90;;;;;;;2.25;100.00;103534.59;5050230;28;20376;-38
2023/01/23 01:33:31;;;;;;;29.88;13.75;;;;;;;2.19;100.00;103537.50;5040867;28;20125;-38
2023/01/23 01:35:57;;;;;;;38.15;14.95;;;;;;;2.19;100.00;103545.50;5031192;28;20053;-38
2023/01/23 01:38:22;;;;;;;32.25;14.52;;;;;;;2.23;100.00;103548.88;5049802;28;20079;-37
2023/01/23 01:40:48;;;;;;;36.58;13.88;;;;;;;2.25;100.00;103552.34;5053933;28;20181;-38
2023/01/23 01:43:19;;;;;;;27.67;13.95;;;;;;;2.26;100.00;103554.06;5054563;28;20032;-37
2023/01/23 01:46:16;;;;;;;30.52;13.40;;;;;;;2.23;100.00;103549.72;5040868;28;20036;-38
2023/01/23 01:49:00;;;;;;;39.70;13.57;;;;;;;2.23;100.00;103555.06;5039976;28;20032;-37
2023/01/23 01:51:28;;;;;;;31.30;12.50;;;;;;;2.24;100.00;103551.47;5036455;28;20361;-39
2023/01/23 01:54:02;;;;;;;30.73;13.05;;;;;;;2.22;100.00;103557.78;5034443;28;20026;-38
2023/01/23 01:56:29;;;;;;;29.23;13.63;;;;;;;2.16;100.00;103564.22;5035895;28;20040;-38
2023/01/23 01:58:55;;;;;;;35.83;14.63;;;;;;;2.19;100.00;103564.09;5036891;28;20017;-38
2023/01/23 02:01:21;;;;;;;39.75;13.90;;;;;;;2.23;100.00;103555.06;5034514;28;20575;-37
2023/01/23 02:03:48;;;;;;;36.17;13.95;;;;;;;2.18;100.00;103565.00;5036068;28;20064;-37
2023/01/23 02:06:13;;;;;;;32.95;13.75;;;;;;;2.20;100.00;103565.81;5051334;28;20460;-37
2023/01/23 02:08:57;;;;;;;38.20;14.25;;;;;;;2.25;100.00;103565.63;5053254;28;20044;-37
2023/01/23 02:11:22;;;;;;;31.58;13.52;;;;;;;2.23;100.00;103571.00;5033310;28;20089;-38
2023/01/23 02:13:48;;;;;;;34.10;13.98;;;;;;;2.23;100.00;103560.38;5033587;28;20100;-38
2023/01/23 02:16:31;;;;;;;31.05;14.02;;;;;;;2.23;100.00;103554.19;5050623;28;20163;-39
2023/01/23 02:19:00;;;;;;;47.03;14.77;;;;;;;2.24;100.00;103562.13;5052803;28;20029;-37
2023/01/23 02:21:26;;;;;;;31.98;13.85;;;;;;;2.24;100.00;103562.13;5052533;28;20036;-39
2023/01/23 02:24:19;;;;;;;28.65;14.32;;;;;;;2.22;100.00;103573.72;5052393;28;20391;-37
2023/01/23 02:26:45;;;;;;;36.38;13.68;;;;;;;2.19;100.00;103567.59;5032633;28;20132;-37
2023/01/23 02:29:11;;;;;;;41.92;13.98;;;;;;;2.23;100.00;103571.00;5038050;28;20495;-39
2023/01/23 02:31:36;;;;;;;39.22;13.70;;;;;;;2.22;100.00;103565.75;5034018;28;20120;-37
2023/01/23 02:34:03;;;;;;;42.10;15.27;;;;;;;2.24;100.00;103567.44;5033569;28;20104;-38
2023/01/23 02:36:31;;;;;;;35.50;14.32;;;;;;;2.22;100.00;103569.28;5052300;28;20242;-38
2023/01/23 02:39:07;;;;;;;40.15;15.20;;;;;;;2.23;100.00;103564.81;5052210;28;20041;-39
2023/01/23 02:41:40;;;;;;;36.35;14.80;;;;;;;2.26;100.00;103554.91;5033675;28;20041;-39
2023/01/23 02:44:27;;;;;;;36.92;13.75;;;;;;;2.27;100.00;103559.34;5033568;28;20095;-38
2023/01/23 02:46:57;;;;;;;34.83;13.77;;;;;;;2.22;100.00;103558.66;5033569;28;20065;-39
2023/01/23 02:49:23;;;;;;;37.20;13.73;;;;;;;2.24;100.00;103556.81;5032202;28;20045;-38
2023/01/23 02:51:50;;;;;;;36.97;14.55;;;;;;;2.22;100.00;103563.97;5032165;28;20033;-38
2023/01/23 02:54:15;;;;;;;41.42;14.40;;;;;;;2.23;100.00;103560.38;5032543;28;20112;-39
2023/01/23 02:56:41;;;;;;;32.80;13.43;;;;;;;2.25;100.00;103569.16;5033188;28;20251;-38
2023/01/23 03:01:51;;;;;;;38.75;12.77;;;;;;;2.25;100.00;103568.28;5051553;28;20047;-39
2023/01/23 03:04:16;;;;;;;34.25;14.35;;;;;;;2.27;100.00;103566.44;5052904;28;20021;-38
2023/01/23 03:06:42;;;;;;;36.92;15.57;;;;;;;2.26;100.00;103570.88;5033310;28;20033;-38
2023/01/23 03:09:10;;;;;;;32.38;13.98;;;;;;;2.29;100.00;103560.13;5035507;28;20099;-38
2023/01/23 03:11:37;;;;;;;36.70;14.82;;;;;;;2.29;100.00;103562.78;5053044;28;20471;-38
2023/01/23 03:14:05;;;;;;;39.17;14.82;;;;;;;2.22;100.00;103556.00;5051775;28;20017;-38
2023/01/23 03:16:30;;;;;;;35.92;13.82;;;;;;;2.26;100.00;103560.25;5032942;28;20036;-38
2023/01/23 03:18:56;;;;;;;39.03;14.98;;;;;;;2.26;100.00;103565.56;5032978;28;20104;-39
2023/01/23 03:21:22;;;;;;;30.20;14.00;;;;;;;2.27;100.00;103567.31;5051233;28;20116;-38
2023/01/23 03:23:47;;;;;;;40.85;15.85;;;;;;;2.27;100.00;103575.28;5039984;28;20091;-38
2023/01/23 03:26:13;;;;;;;38.08;15.05;;;;;;;2.26;100.00;103576.19;5050106;28;20025;-38
2023/01/23 03:31:22;;;;;;;37.05;14.48;;;;;;;2.21;100.00;103578.16;5032888;28;20102;-38
2023/01/23 03:33:48;;;;;;;37.08;13.57;;;;;;;2.22;100.00;103584.34;5031064;28;20017;-39
2023/01/23 03:36:14;;;;;;;45.08;15.32;;;;;;;2.27;100.00;103587.69;5032792;28;20032;-38
2023/01/23 03:41:23;;;;;;;38.13;14.77;;;;;;;2.33;100.00;103587.44;5041899;28;20376;-38
2023/01/23 03:41:25;;;;;;;36.25;13.50;;;;;;;2.33;100.00;103596.28;5035592;28;20048;-38
2023/01/23 03:43:50;;;;;;;38.33;14.40;;;;;;;2.31;100.00;103584.84;5032410;28;20021;-38
2023/01/23 03:46:15;;;;;;;31.90;14.68;;;;;;;2.29;100.00;103586.72;5035362;28;20041;-38
2023/01/23 03:48:41;;;;;;;39.83;16.83;;;;;;;2.25;100.00;103589.53;5053342;28;20433;-38
2023/01/23 03:51:06;;;;;;;38.42;15.13;;;;;;;2.24;100.00;103594.00;5038941;28;20040;-39
2023/01/23 03:53:32;;;;;;;32.75;14.95;;;;;;;2.31;100.00;103595.47;5051736;28;20029;-38
2023/01/23 03:55:57;;;;;;;45.03;16.52;;;;;;;2.37;100.00;103597.00;5035945;28;20644;-38
2023/01/23 03:58:22;;;;;;;41.65;16.48;;;;;;;2.37;100.00;103589.94;5032313;28;20057;-38
2023/01/23 04:00:48;;;;;;;38.90;15.68;;;;;;;2.38;100.00;103591.66;5033554;28;20053;-38
2023/01/23 04:03:13;;;;;;;36.33;14.77;;;;;;;2.34;100.00;103589.16;5032092;28;20080;-38
2023/01/23 04:05:38;;;;;;;35.05;15.77;;;;;;;2.31;100.00;103587.50;5049411;28;20041;-38
2023/01/23 04:08:04;;;;;;;40.75;15.85;;;;;;;2.31;100.00;103584.84;5052110;28;20078;-37
2023/01/23 04:10:29;;;;;;;41.60;14.73;;;;;;;2.27;100.00;103583.25;5034479;28;20033;-37
2023/01/23 04:12:54;;;;;;;42.67;16.48;;;;;;;2.27;100.00;103583.25;5031823;28;20429;-38
2023/01/23 04:15:20;;;;;;;40.13;15.93;;;;;;;2.25;100.00;103590.41;5046034;28;20024;-37
2023/01/23 04:17:45;;;;;;;48.90;16.90;;;;;;;2.25;100.00;103590.41;5051667;28;20040;-37
2023/01/23 04:20:12;;;;;;;50.05;16.38;;;;;;;2.22;100.00;103589.66;5048716;28;20083;-37
2023/01/23 04:22:37;;;;;;;46.58;16.60;;;;;;;2.26;100.00;103592.13;5049049;28;20068;-38
2023/01/23 04:25:03;;;;;;;47.33;17.35;;;;;;;2.25;100.00;103601.03;5041664;28;20053;-38
2023/01/23 04:27:29;;;;;;;39.95;17.05;;;;;;;2.22;100.00;103606.47;5051680;28;20033;-39
2023/01/23 04:29:54;;;;;;;44.38;16.98;;;;;;;2.23;100.00;103612.66;5044534;28;20045;-38
2023/01/23 04:32:20;;;;;;;50.53;17.33;;;;;;;2.20;100.00;103608.31;5031715;28;20094;-39
2023/01/23 04:34:45;;;;;;;42.55;16.88;;;;;;;2.20;100.00;103619.81;5032653;28;20119;-39
2023/01/23 04:37:10;;;;;;;37.67;16.67;;;;;;;2.20;100.00;103611.84;5031362;28;20018;-38
2023/01/23 04:39:36;;;;;;;41.30;16.65;;;;;;;2.27;100.00;103619.59;5034587;28;20021;-39
2023/01/23 04:42:01;;;;;;;39.38;16.77;;;;;;;2.27;100.00;103620.44;5031579;28;20104;-38
2023/01/23 04:44:26;;;;;;;47.13;17.40;;;;;;;2.29;100.00;103623.91;5031716;28;20461;-39
2023/01/23 04:46:53;;;;;;;39.35;17.45;;;;;;;2.31;100.00;103631.81;5031067;28;20108;-39
2023/01/23 04:49:19;;;;;;;49.10;17.92;;;;;;;2.30;100.00;103622.97;5037012;28;20036;-37
2023/01/23 04:51:48;;;;;;;48.17;18.05;;;;;;;2.26;100.00;103624.00;5050935;28;20041;-38
2023/01/23 04:54:15;;;;;;;48.25;18.25;;;;;;;2.22;100.00;103619.75;5046779;28;20396;-38
2023/01/23 04:56:40;;;;;;;43.85;17.10;;;;;;;2.27;100.00;103631.06;5031074;28;20104;-38
2023/01/23 04:59:06;;;;;;;42.88;16.55;;;;;;;2.25;100.00;103627.59;5031221;28;20052;-37
2023/01/23 05:01:31;;;;;;;43.20;16.88;;;;;;;2.28;100.00;103629.28;5035134;28;20090;-38
2023/01/23 05:03:57;;;;;;;41.00;16.90;;;;;;;2.30;100.00;103630.09;5049144;28;20447;-37
2023/01/23 05:06:22;;;;;;;36.67;16.52;;;;;;;2.31;100.00;103635.34;5030770;28;20029;-37
2023/01/23 05:08:47;;;;;;;34.75;15.50;;;;;;;2.27;100.00;103625.75;5031939;28;20037;-38
2023/01/23 05:11:13;;;;;;;47.75;17.75;;;;;;;2.30;100.00;103625.63;5030927;28;20112;-37
2023/01/23 05:13:38;;;;;;;41.28;16.80;;;;;;;2.35;100.00;103646.72;5048371;28;20039;-38
2023/01/23 05:16:04;;;;;;;44.72;16.70;;;;;;;2.33;100.00;103648.56;5035539;28;20132;-38
2023/01/23 05:18:29;;;;;;;43.53;17.65;;;;;;;2.34;100.00;103643.22;5037379;28;20063;-38
2023/01/23 05:20:55;;;;;;;43.60;15.82;;;;;;;2.36;100.00;103641.34;5052388;28;20452;-38
2023/01/23 05:23:20;;;;;;;40.95;15.68;;;;;;;2.34;100.00;103637.91;5050208;28;20523;-37
2023/01/23 05:25:45;;;;;;;34.00;15.50;;;;;;;2.35;100.00;103634.31;5055142;28;20029;-37
2023/01/23 05:28:11;;;;;;;43.50;17.77;;;;;;;2.35;100.00;103639.63;5055082;28;20021;-39
2023/01/23 05:30:36;;;;;;;36.60;16.10;;;;;;;2.36;100.00;103632.50;5035974;28;20136;-38
2023/01/23 05:33:02;;;;;;;41.40;16.35;;;;;;;2.34;100.00;103627.28;5054723;28;20029;-38
2023/01/23 05:35:27;;;;;;;46.65;17.00;;;;;;;2.33;100.00;103629.97;5046019;28;20406;-39
2023/01/23 05:37:53;;;;;;;38.30;16.33;;;;;;;2.40;100.00;103623.50;5044695;28;20045;-39
2023/01/23 05:40:19;;;;;;;40.05;17.33;;;;;;;2.37;100.00;103627.13;5043986;28;20492;-38
2023/01/23 05:42:45;;;;;;;44.33;16.50;;;;;;;2.32;100.00;103623.78;5043820;28;20053;-39
2023/01/23 05:45:11;;;;;;;42.55;16.73;;;;;;;2.32;100.00;103623.78;5042552;28;20108;-39
2023/01/23 05:47:36;;;;;;;46.42;17.63;;;;;;;2.36;100.00;103628.03;5039842;28;20041;-39
2023/01/23 05:50:02;;;;;;;44.80;18.42;;;;;;;2.37;100.00;103619.16;5042926;28;20111;-38
2023/01/23 05:52:28;;;;;;;46.53;17.77;;;;;;;2.35;100.00;103628.97;5037628;28;20449;-39
2023/01/23 05:54:53;;;;;;;51.22;19.75;;;;;;;2.38;100.00;103630.66;5038584;28;20040;-37
2023/01/23 05:57:18;;;;;;;47.20;18.60;;;;;;;2.34;100.00;103627.28;5044465;28;20483;-39
2023/01/23 05:59:44;;;;;;;47.53;19.10;;;;;;;2.39;100.00;103630.56;5038807;28;20053;-39
2023/01/23 06:02:09;;;;;;;46.08;17.98;;;;;;;2.39;100.00;103638.56;5033662;28;20044;-39
2023/01/23 06:04:35;;;;;;;52.45;19.83;;;;;;;2.35;100.00;103628.97;5037673;28;20067;-39
2023/01/23 06:07:00;;;;;;;44.08;17.45;;;;;;;2.38;100.00;103631.53;5038336;28;20116;-38
2023/01/23 06:09:25;;;;;;;47.50;18.85;;;;;;;2.34;100.00;103631.69;5038561;28;20385;-38
2023/01/23 06:11:51;;;;;;;43.22;18.15;;;;;;;2.28;100.00;103632.81;5036822;28;20598;-39
2023/01/23 06:14:16;;;;;;;51.60;18.83;;;;;;;2.35;100.00;103638.75;5052427;28;20029;-38
2023/01/23 06:16:41;;;;;;;50.00;18.08;;;;;;;2.35;100.00;103634.31;5039774;28;20388;-38
2023/01/23 06:19:07;;;;;;;50.72;18.45;;;;;;;2.31;100.00;103631.81;5038108;28;20025;-38
2023/01/23 06:21:32;;;;;;;45.45;18.20;;;;;;;2.33;100.00;103636.16;5035058;28;20414;-38
2023/01/23 06:23:58;;;;;;;46.88;17.35;;;;;;;2.32;100.00;103645.06;5047835;28;20025;-39
2023/01/23 06:26:24;;;;;;;45.90;18.60;;;;;;;2.33;100.00;103641.47;5041623;28;20117;-37
2023/01/23 06:28:49;;;;;;;42.35;16.92;;;;;;;2.30;100.00;103641.59;5040532;28;20439;-38
2023/01/23 06:31:15;;;;;;;43.67;18.40;;;;;;;2.26;100.00;103639.97;5055038;28;20037;-38
2023/01/23 06:33:40;;;;;;;49.03;17.63;;;;;;;2.24;100.00;103641.84;5033008;28;20376;-38
2023/01/23 06:36:06;;;;;;;51.70;18.15;;;;;;;2.27;100.00;103643.50;5045331;28;20025;-38
2023/01/23 06:38:31;;;;;;;43.92;18.80;;;;;;;2.28;100.00;103642.56;5033596;28;20353;-38
2023/01/23 06:40:57;;;;;;;49.75;19.35;;;;;;;2.30;100.00;103646.91;5039441;28;20057;-38
2023/01/23 06:43:23;;;;;;;47.28;18.52;;;;;;;2.25;100.00;103643.56;5040810;28;20033;-38
2023/01/23 06:45:48;;;;;;;42.67;17.77;;;;;;;2.24;100.00;103647.16;5033944;28;20045;-39
2023/01/23 06:48:14;;;;;;;44.00;18.52;;;;;;;2.28;100.00;103648.75;5037647;28;20037;-38
2023/01/23 06:50:41;;;;;;;42.53;17.98;;;;;;;2.30;100.00;103651.34;5037620;28;20398;-38
2023/01/23 06:53:06;;;;;;;46.38;18.63;;;;;;;2.28;100.00;103650.53;5035715;28;20033;-38
2023/01/23 06:55:32;;;;;;;46.05;19.20;;;;;;;2.29;100.00;103660.22;5037882;28;20029;-37
2023/01/23 06:57:58;;;;;;;47.58;18.23;;;;;;;2.25;100.00;103655.97;5044316;28;20051;-37
2023/01/23 07:00:23;;;;;;;42.85;17.85;;;;;;;2.30;100.00;103662.84;5036124;28;20045;-38
2023/01/23 07:02:49;;;;;;;49.55;18.45;;;;;;;2.23;100.00;103661.34;5035701;28;20032;-38
2023/01/23 07:05:15;;;;;;;52.10;19.50;;;;;;;2.19;100.00;103662.41;5033297;28;20034;-38
2023/01/23 07:07:40;;;;;;;49.53;19.48;;;;;;;2.19;100.00;103668.56;5044480;28;20040;-39
2023/01/23 07:10:06;;;;;;;48.75;19.13;;;;;;;2.29;100.00;103666.44;5042442;28;20037;-38
2023/01/23 07:12:32;;;;;;;48.78;20.98;;;;;;;2.31;100.00;103666.38;5042957;28;20051;-38
2023/01/23 07:14:57;;;;;;;41.55;18.42;;;;;;;2.29;100.00;103682.38;5045782;28;20473;-37
2023/01/23 07:17:23;;;;;;;49.47;19.33;;;;;;;2.31;100.00;103675.19;5037692;28;20029;-37
2023/01/23 07:19:49;;;;;;;44.15;18.52;;;;;;;2.29;100.00;103677.06;5035437;28;20025;-37
2023/01/23 07:22:19;;;;;;;48.08;19.17;;;;;;;2.28;100.00;103679.78;5035186;28;20025;-39
2023/01/23 07:24:44;;;;;;;48.67;18.98;;;;;;;2.36;100.00;103683.00;5033299;28;20442;-38
2023/01/23 07:27:09;;;;;;;38.50;18.67;;;;;;;2.33;100.00;103689.31;5038641;28;20044;-38
2023/01/23 07:29:35;;;;;;;49.25;21.55;;;;;;;2.36;100.00;103678.53;5046937;28;20033;-37
2023/01/23 07:32:00;;;;;;;49.58;19.08;;;;;;;2.37;100.00;103677.63;5033625;28;20108;-37
2023/01/23 07:34:26;;;;;;;44.85;18.92;;;;;;;2.37;100.00;103679.41;5038783;28;20063;-36
2023/01/23 07:36:51;;;;;;;47.45;19.52;;;;;;;2.41;100.00;103683.69;5043490;28;20033;-38
2023/01/23 07:39:17;;;;;;;50.92;19.65;;;;;;;2.35;100.00;103692.78;5045726;28;20557;-39
2023/01/23 07:41:42;;;;;;;50.33;19.20;;;;;;;2.36;100.00;103693.63;5044286;28;20409;-38
2023/01/23 07:44:17;;;;;;;50.50;20.83;;;;;;;2.34;100.00;103696.38;5035944;28;20033;-38
2023/01/23 07:46:43;;;;;;;45.88;19.77;;;;;;;2.38;100.00;103697.09;5038686;28;20033;-38
2023/01/23 07:49:09;;;;;;;50.95;20.02;;;;;;;2.38;100.00;103702.41;5041549;28;20473;-38
2023/01/23 07:51:34;;;;;;;44.03;18.90;;;;;;;2.41;100.00;103711.13;5042584;28;20071;-38
2023/01/23 07:53:59;;;;;;;50.53;19.02;;;;;;;2.48;100.00;103703.81;5046063;28;20041;-37
2023/01/23 07:56:25;;;;;;;45.28;19.50;;;;;;;2.46;100.00;103707.44;5039840;28;20017;-39
2023/01/23 07:58:50;;;;;;;46.78;19.23;;;;;;;2.47;100.00;103706.50;5037408;28;20037;-37
2023/01/23 08:01:15;;;;;;;46.90;19.80;;;;;;;2.44;100.00;103712.81;5040461;28;20392;-36
2023/01/23 08:03:41;;;;;;;51.35;19.42;;;;;;;2.44;100.00;103715.47;5041883;28;20032;-38
2023/01/23 08:06:06;;;;;;;46.67;19.13;;;;;;;2.41;100.00;103719.09;5038851;28;20095;-37
2023/01/23 08:08:32;;;;;;;42.30;18.33;;;;;;;2.53;100.00;103719.59;5039981;28;20021;-38
2023/01/23 08:10:57;;;;;;;47.40;19.33;;;;;;;2.57;100.00;103715.88;5038775;28;20530;-37
2023/01/23 08:13:23;;;;;;;52.45;20.70;;;;;;;2.60;100.00;103729.03;5032311;28;20045;-37
2023/01/23 08:15:48;;;;;;;46.67;19.63;;;;;;;2.56;100.00;103732.75;5034168;28;20057;-38
2023/01/23 08:18:14;;;;;;;46.90;18.67;;;;;;;2.64;100.00;103736.00;5033764;28;20036;-36
2023/01/23 08:20:39;;;;;;;50.13;18.63;;;;;;;2.65;100.00;103737.72;5042096;28;20090;-37
2023/01/23 08:23:04;;;;;;;44.97;18.55;;;;;;;2.64;100.00;103742.16;5042772;28;20040;-38
2023/01/23 08:25:30;;;;;;;46.85;19.17;;;;;;;2.66;100.00;103744.78;5032455;28;20044;-38
2023/01/23 08:27:56;;;;;;;47.50;19.98;;;;;;;2.66;100.00;103750.09;5047446;28;20041;-37
2023/01/23 08:30:21;;;;;;;50.90;19.52;;;;;;;2.68;100.00;103750.03;5036879;28;20025;-38
2023/01/23 08:32:46;;;;;;;48.67;18.45;;;;;;;2.67;100.00;103751.81;5035415;28;20033;-38
2023/01/23 08:35:11;;;;;;;45.58;18.92;;;;;;;2.66;100.00;103755.41;5041012;28;20073;-38
2023/01/23 08:37:37;;;;;;;48.28;19.80;;;;;;;2.69;100.00;103755.28;5037474;28;20053;-38
2023/01/23 08:40:03;;;;;;;45.03;18.67;;;;;;;2.74;100.00;103763.97;5038855;28;20045;-38
2023/01/23 08:42:28;;;;;;;46.28;19.52;;;;;;;2.75;100.00;103749.72;5034161;28;20449;-38
2023/01/23 08:44:54;;;;;;;48.00;18.95;;;;;;;2.79;100.00;103761.09;5035769;28;20109;-39
2023/01/23 08:47:19;;;;;;;47.03;19.65;;;;;;;2.72;100.00;103764.94;5036081;28;20033;-37
2023/01/23 08:49:45;;;;;;;40.70;18.73;;;;;;;2.73;100.00;103762.22;5045006;28;20053;-38
2023/01/23 08:52:10;;;;;;;42.22;18.52;;;;;;;2.75;100.00;103765.69;5042211;28;20103;-37
2023/01/23 08:54:36;;;;;;;48.35;18.95;;;;;;;2.71;100.00;103766.72;5038839;28;20483;-38
2023/01/23 08:57:01;;;;;;;41.58;17.92;;;;;;;2.75;100.00;103771.00;5052743;28;20029;-38
2023/01/23 08:59:27;;;;;;;42.17;19.10;;;;;;;2.78;100.00;103773.53;5044070;28;20028;-38
2023/01/23 09:01:52;;;;;;;40.65;17.63;;;;;;;2.81;100.00;103775.22;5039538;28;20026;-37
2023/01/23 09:04:18;;;;;;;46.30;18.88;;;;;;;2.85;100.00;103766.19;5036698;28;20048;-37
2023/01/23 09:06:43;;;;;;;45.10;18.40;;;;;;;2.91;100.00;103781.06;5044234;28;20033;-39
2023/01/23 09:09:08;;;;;;;49.47;19.30;;;;;;;2.89;100.00;103778.44;5044286;28;20120;-40
2023/01/23 09:11:34;;;;;;;37.58;18.67;;;;;;;2.94;100.00;103775.59;5040386;28;20025;-38
2023/01/23 09:13:59;;;;;;;43.70;18.48;;;;;;;2.97;100.00;103773.69;5045551;28;20037;-37
2023/01/23 09:16:24;;;;;;;46.55;19.08;;;;;;;2.96;100.00;103771.09;5044806;28;20030;-37
2023/01/23 09:18:50;;;;;;;42.38;17.65;;;;;;;2.93;100.00;103764.09;5047131;28;20035;-37
2023/01/23 09:21:16;;;;;;;40.97;16.63;;;;;;;2.95;100.00;103766.69;5051075;28;20384;-38
2023/01/23 09:23:41;;;;;;;45.88;16.90;;;;;;;2.96;100.00;103765.78;5039516;28;20414;-38
2023/01/23 09:26:09;;;;;;;42.78;18.55;;;;;;;2.96;100.00;103755.13;5043447;28;20116;-38
2023/01/23 09:28:36;;;;;;;37.35;17.52;;;;;;;3.02;100.00;103765.53;5048092;28;20361;-38
2023/01/23 09:31:03;;;;;;;44.47;16.70;;;;;;;3.02;100.00;103768.19;5036557;28;20048;-38
2023/01/23 09:33:29;;;;;;;46.17;18.67;;;;;;;3.04;100.00;103772.53;5043200;28;20060;-39
2023/01/23 09:35:54;;;;;;;41.22;18.85;;;;;;;3.10;100.00;103771.41;5039223;28;20707;-37
2023/01/23 09:38:20;;;;;;;44.08;19.02;;;;;;;3.12;100.00;103774.88;5046834;28;20132;-37
2023/01/23 09:40:50;;;;;;;38.75;18.15;;;;;;;3.14;100.00;103772.19;5049413;28;20112;-38
2023/01/23 09:43:22;;;;;;;42.90;19.20;;;;;;;3.14;100.00;103778.34;5046795;28;20059;-38
2023/01/23 09:46:10;;;;;;;41.58;18.90;;;;;;;3.21;100.00;103781.63;5048595;28;20029;-38
2023/01/23 09:48:43;;;;;;;45.83;18.75;;;;;;;3.23;100.00;103783.28;5039564;28;20497;-38
2023/01/23 09:51:19;;;;;;;39.63;18.55;;;;;;;3.29;100.00;103779.50;5047214;28;20082;-39
2023/01/23 09:53:44;;;;;;;39.28;17.25;;;;;;;3.36;100.00;103774.81;5038530;28;20082;-38
2023/01/23 09:56:27;;;;;;;40.17;17.83;;;;;;;3.36;100.00;103773.03;5037020;28;20029;-39
2023/01/23 09:59:09;;;;;;;36.22;18.30;;;;;;;3.41;100.00;103765.72;5039889;28;20485;-38
2023/01/23 10:01:35;;;;;;;47.33;18.23;;;;;;;3.49;100.00;103763.59;5045390;28;20165;-37
2023/01/23 10:04:01;;;;;;;37.53;18.58;;;;;;;3.58;100.00;103773.03;5041807;28;20032;-39
2023/01/23 10:06:29;;;;;;;38.53;17.55;;;;;;;3.64;100.00;103764.75;5046001;28;20087;-39
2023/01/23 10:09:00;;;;;;;41.15;18.95;;;;;;;3.71;100.00;103763.56;5039575;28;20104;-37
2023/01/23 10:11:47;;;;;;;40.55;17.75;;;;;;;3.81;100.00;103753.38;5042113;28;20689;-37
2023/01/23 10:14:46;;;;;;;40.17;17.63;;;;;;;3.83;100.00;103750.66;5041012;28;20042;-39
2023/01/23 10:17:20;;;;;;;41.25;17.30;;;;;;;3.86;100.00;103740.72;5044934;28;20025;-38
2023/01/23 10:20:10;;;;;;;36.20;16.42;;;;;;;3.95;100.00;103736.81;5035053;28;20037;-38
2023/01/23 10:23:04;;;;;;;36.55;15.75;;;;;;;4.05;100.00;103730.09;5050240;28;20025;-38
2023/01/23 10:25:34;;;;;;;37.63;16.48;;;;;;;4.14;100.00;103731.53;5046299;28;20040;-38
2023/01/23 10:28:30;;;;;;;37.75;16.15;;;;;;;4.23;100.00;103723.09;5039028;28;20083;-38
2023/01/23 10:30:59;;;;;;;35.13;14.88;;;;;;;4.32;100.00;103728.03;5046848;28;20467;-38
2023/01/23 10:33:38;;;;;;;34.47;16.50;;;;;;;4.31;100.00;103725.41;5042091;28;20036;-38
2023/01/23 10:36:16;;;;;;;33.80;16.75;;;;;;;4.29;100.00;103733.50;5046589;28;20021;-39
2023/01/23 10:38:47;;;;;;;;;;;;;;;4.20;100.00;103733.91;5040682;28;20048;-38
2023/01/23 10:41:16;;;;;;;30.90;13.93;;;;;;;4.24;100.00;103738.16;5039701;28;19916;-39
2023/01/23 10:43:44;;;;;;;33.65;15.98;;;;;;;4.30;100.00;103745.03;5038805;28;20021;-39
2023/01/23 10:46:16;;;;;;;33.55;16.05;;;;;;;4.40;100.00;103747.19;5038440;28;20029;-38
2023/01/23 10:48:47;;;;;;;37.53;16.20;;;;;;;4.36;100.00;103742.06;5038392;28;20091;-39
2023/01/23 10:51:28;;;;;;;36.13;16.20;;;;;;;4.25;100.00;103742.56;5039916;28;20675;-39
2023/01/23 10:54:11;;;;;;;35.25;16.70;;;;;;;4.07;100.00;103754.03;5047389;28;20053;-39
2023/01/23 10:56:59;;;;;;;32.28;15.65;;;;;;;3.97;100.00;103745.56;5042666;28;20044;-38
2023/01/23 10:59:26;;;;;;;40.83;16.92;;;;;;;4.05;100.00;103746.09;5039040;28;20081;-38
2023/01/23 11:01:57;;;;;;;34.20;17.08;;;;;;;4.14;100.00;103751.03;5042672;28;20032;-38
2023/01/23 11:04:25;;;;;;;33.22;15.00;;;;;;;4.09;100.00;103742.38;5043371;28;20041;-38
2023/01/23 11:06:59;;;;;;;;;;;;;;;4.14;100.00;103750.19;5045694;28;20025;-36
2023/01/23 11:09:24;;;;;;;35.75;14.88;;;;;;;4.24;100.00;103756.84;5040659;28;20225;-38
2023/01/23 11:12:03;;;;;;;33.00;15.65;;;;;;;4.26;100.00;103756.75;5040884;28;20030;-38
2023/01/23 11:14:29;;;;;;;30.15;15.55;;;;;;;4.30;100.00;103750.34;5041163;28;20483;-40
2023/01/23 11:17:22;;;;;;;28.92;15.52;;;;;;;4.33;100.00;103760.88;5041971;28;20052;-39